createdAt,value
2019-05-23T00:00:54.706Z,7.60
2019-05-23T00:01:54.852Z,8.10
2019-05-23T00:02:54.794Z,6.80
2019-05-23T00:03:54.799Z,6.50
2019-05-23T00:04:54.822Z,6.10
2019-05-23T00:05:54.852Z,6.60
2019-05-23T00:06:54.886Z,5.90
2019-05-23T00:07:55.112Z,5.60
2019-05-23T00:08:54.939Z,6.10
2019-05-23T00:09:54.968Z,5.00
2019-05-23T00:10:55.003Z,5.10
2019-05-23T00:11:55.026Z,5.30
2019-05-23T00:12:55.061Z,5.50
2019-05-23T00:13:55.084Z,6.10
2019-05-23T00:14:55.112Z,6.20
2019-05-23T00:15:55.142Z,5.70
2019-05-23T00:16:55.169Z,5.20
2019-05-23T00:17:55.198Z,5.80
2019-05-23T00:18:55.228Z,5.10
2019-05-23T00:19:55.256Z,5.60
2019-05-23T00:20:55.285Z,5.90
2019-05-23T00:21:55.313Z,5.70
2019-05-23T00:22:55.345Z,5.20
2019-05-23T00:23:55.371Z,5.30
2019-05-23T00:24:55.400Z,5.30
2019-05-23T00:25:55.435Z,6.30
2019-05-23T00:26:55.458Z,5.10
2019-05-23T00:27:55.487Z,4.90
2019-05-23T00:29:09.042Z,5.30
2019-05-23T00:29:55.543Z,6.30
2019-05-23T00:30:55.572Z,5.90
2019-05-23T00:31:55.601Z,5.20
2019-05-23T00:32:55.633Z,5.00
2019-05-23T00:33:55.659Z,5.60
2019-05-23T00:34:55.690Z,5.30
2019-05-23T00:35:55.718Z,5.20
2019-05-23T00:37:03.162Z,5.70
2019-05-23T00:37:55.775Z,5.70
2019-05-23T00:38:55.803Z,5.50
2019-05-23T00:39:55.833Z,6.40
2019-05-23T00:40:55.859Z,6.00
2019-05-23T00:41:55.898Z,6.10
2019-05-23T00:42:55.917Z,5.60
2019-05-23T00:43:55.948Z,5.80
2019-05-23T00:44:55.980Z,5.50
2019-05-23T00:45:56.004Z,5.90
2019-05-23T00:46:56.035Z,6.50
2019-05-23T00:47:56.061Z,5.90
2019-05-23T00:48:56.091Z,5.80
2019-05-23T00:49:56.119Z,6.50
2019-05-23T00:50:56.148Z,6.20
2019-05-23T00:51:56.177Z,6.00
2019-05-23T00:52:56.204Z,5.70
2019-05-23T00:53:56.242Z,5.90
2019-05-23T00:54:56.263Z,5.90
2019-05-23T00:55:56.302Z,6.10
2019-05-23T00:56:56.320Z,6.40
2019-05-23T00:57:56.349Z,6.30
2019-05-23T00:58:56.382Z,6.90
2019-05-23T00:59:56.410Z,5.90
2019-05-23T01:00:56.434Z,5.90
2019-05-23T01:01:56.466Z,6.60
2019-05-23T01:02:56.490Z,6.50
2019-05-23T01:03:56.520Z,5.50
2019-05-23T01:04:56.550Z,6.40
2019-05-23T01:05:56.577Z,6.20
2019-05-23T01:06:56.607Z,6.20
2019-05-23T01:07:56.640Z,6.50
2019-05-23T01:08:56.665Z,6.10
2019-05-23T01:09:56.691Z,6.50
2019-05-23T01:10:56.721Z,6.40
2019-05-23T01:11:56.750Z,6.80
2019-05-23T01:12:56.780Z,7.30
2019-05-23T01:13:56.806Z,7.60
2019-05-23T01:14:56.834Z,7.80
2019-05-23T01:15:56.864Z,8.30
2019-05-23T01:16:56.895Z,8.10
2019-05-23T01:17:56.922Z,8.10
2019-05-23T01:18:56.953Z,7.60
2019-05-23T01:19:57.181Z,7.20
2019-05-23T01:20:57.011Z,7.10
2019-05-23T01:21:57.035Z,6.50
2019-05-23T01:22:57.064Z,6.20
2019-05-23T01:23:57.103Z,6.30
2019-05-23T01:24:57.119Z,6.30
2019-05-23T01:25:57.148Z,6.80
2019-05-23T01:26:57.177Z,5.90
2019-05-23T01:27:57.207Z,6.10
2019-05-23T01:28:57.235Z,6.00
2019-05-23T01:29:57.262Z,6.20
2019-05-23T01:30:57.292Z,6.50
2019-05-23T01:31:57.696Z,6.00
2019-05-23T01:32:57.354Z,6.20
2019-05-23T01:33:57.376Z,6.30
2019-05-23T01:34:57.407Z,5.90
2019-05-23T01:35:57.435Z,6.30
2019-05-23T01:36:57.490Z,6.20
2019-05-23T01:37:57.492Z,6.40
2019-05-23T01:38:57.519Z,6.40
2019-05-23T01:39:57.549Z,6.60
2019-05-23T01:40:57.578Z,6.60
2019-05-23T01:41:57.604Z,6.90
2019-05-23T01:42:57.634Z,6.90
2019-05-23T01:43:57.662Z,7.10
2019-05-23T01:45:58.931Z,6.40
2019-05-23T01:46:57.746Z,6.70
2019-05-23T01:47:57.781Z,6.20
2019-05-23T01:48:57.819Z,6.30
2019-05-23T01:49:57.856Z,6.00
2019-05-23T01:50:57.860Z,7.00
2019-05-23T01:51:57.892Z,6.50
2019-05-23T01:52:57.957Z,6.40
2019-05-23T01:53:57.948Z,6.70
2019-05-23T01:54:57.974Z,7.10
2019-05-23T01:56:00.629Z,6.50
2019-05-23T01:57:45.587Z,6.70
2019-05-23T01:58:45.614Z,6.40
2019-05-23T01:59:45.642Z,6.60
2019-05-23T02:00:45.669Z,7.50
2019-05-23T02:01:45.700Z,7.70
2019-05-23T02:02:45.753Z,7.10
2019-05-23T02:03:46.288Z,7.60
2019-05-23T02:04:45.783Z,6.90
2019-05-23T02:05:46.417Z,7.80
2019-05-23T02:07:45.868Z,7.10
2019-05-23T02:08:45.895Z,7.10
2019-05-23T02:09:45.923Z,7.60
2019-05-23T02:10:45.952Z,7.00
2019-05-23T02:11:45.988Z,7.00
2019-05-23T02:12:46.008Z,7.00
2019-05-23T02:13:46.043Z,6.50
2019-05-23T02:14:46.070Z,6.70
2019-05-23T02:15:46.093Z,6.80
2019-05-23T02:16:46.122Z,6.80
2019-05-23T02:17:46.150Z,6.90
2019-05-23T02:18:46.180Z,6.60
2019-05-23T02:19:46.209Z,6.60
2019-05-23T02:20:46.279Z,6.70
2019-05-23T02:21:46.262Z,7.20
2019-05-23T02:22:46.318Z,6.40
2019-05-23T02:24:46.663Z,7.00
2019-05-23T02:28:12.129Z,6.60
2019-05-23T02:31:46.547Z,7.40
2019-05-23T02:32:46.574Z,6.40
2019-05-23T02:37:07.603Z,7.50
2019-05-23T02:38:07.629Z,7.70
2019-05-23T02:39:07.657Z,8.30
2019-05-23T02:40:07.714Z,7.80
2019-05-23T02:46:09.270Z,7.10
2019-05-23T02:47:07.883Z,6.70
2019-05-23T02:50:07.968Z,7.00
2019-05-23T02:51:07.995Z,6.70
2019-05-23T02:52:08.024Z,7.30
2019-05-23T02:53:08.074Z,7.80
2019-05-23T02:54:08.082Z,7.60
2019-05-23T02:56:08.367Z,7.90
2019-05-23T02:57:08.187Z,6.90
2019-05-23T02:59:08.455Z,6.90
2019-05-23T03:00:08.679Z,6.80
2019-05-23T03:01:08.503Z,7.20
2019-05-23T03:02:08.511Z,6.80
2019-05-23T03:05:08.818Z,7.10
2019-05-23T03:06:08.444Z,7.30
2019-05-23T03:07:08.673Z,6.60
2019-05-23T03:10:08.759Z,6.70
2019-05-23T03:17:08.731Z,6.70
2019-05-23T03:18:08.756Z,7.60
2019-05-23T03:19:08.784Z,7.60
2019-05-23T03:20:08.814Z,7.10
2019-05-23T03:21:08.855Z,6.80
2019-05-23T03:27:09.035Z,7.70
2019-05-23T03:28:09.044Z,7.10
2019-05-23T03:29:09.090Z,8.00
2019-05-23T03:30:09.118Z,7.40
2019-05-23T03:31:28.782Z,7.70
2019-05-23T03:32:09.174Z,7.80
2019-05-23T03:33:09.388Z,7.80
2019-05-23T03:34:09.228Z,8.00
2019-05-23T03:35:09.470Z,8.60
2019-05-23T03:36:09.297Z,8.60
2019-05-23T03:37:09.312Z,7.80
2019-05-23T03:39:09.370Z,8.40
2019-05-23T03:40:09.406Z,8.20
2019-05-23T03:41:09.425Z,8.40
2019-05-23T03:42:09.453Z,9.00
2019-05-23T03:43:09.690Z,8.50
2019-05-23T03:44:09.730Z,8.50
2019-05-23T03:46:09.565Z,9.60
2019-05-23T03:47:09.598Z,9.00
2019-05-23T03:48:09.629Z,8.90
2019-05-23T03:49:09.873Z,9.30
2019-05-23T03:50:09.683Z,8.80
2019-05-23T03:51:09.712Z,8.60
2019-05-23T03:52:10.141Z,9.60
2019-05-23T03:53:10.677Z,9.60
2019-05-23T03:54:09.996Z,9.30
2019-05-23T03:55:09.824Z,9.80
2019-05-23T03:56:10.057Z,9.20
2019-05-23T03:57:09.884Z,8.70
2019-05-23T03:58:10.117Z,8.50
2019-05-23T03:59:10.335Z,8.80
2019-05-23T04:01:10.191Z,9.30
2019-05-23T04:03:10.049Z,7.40
2019-05-23T04:04:10.395Z,8.60
2019-05-23T04:05:10.206Z,8.20
2019-05-23T04:06:10.335Z,7.80
2019-05-23T04:07:10.360Z,7.70
2019-05-23T04:08:10.198Z,7.70
2019-05-23T04:09:10.621Z,8.10
2019-05-23T04:10:10.446Z,7.50
2019-05-23T04:11:10.295Z,8.70
2019-05-23T04:12:10.653Z,9.40
2019-05-23T04:17:10.439Z,7.90
2019-05-23T04:18:10.469Z,8.60
2019-05-23T04:19:10.497Z,8.20
2019-05-23T04:20:10.727Z,8.30
2019-05-23T04:21:10.554Z,8.30
2019-05-23T04:22:10.993Z,8.00
2019-05-23T04:23:10.610Z,7.60
2019-05-23T04:24:10.666Z,8.20
2019-05-23T04:27:10.727Z,7.70
2019-05-23T04:29:10.778Z,8.40
2019-05-23T04:30:10.805Z,7.60
2019-05-23T04:33:11.298Z,8.20
2019-05-23T04:36:11.984Z,8.50
2019-05-23T04:37:11.212Z,7.70
2019-05-23T04:39:11.064Z,8.50
2019-05-23T04:42:11.350Z,8.90
2019-05-23T04:43:11.177Z,7.80
2019-05-23T04:49:12.364Z,8.20
2019-05-23T04:54:11.711Z,8.40
2019-05-23T04:55:11.732Z,8.30
2019-05-23T05:04:12.671Z,8.00
2019-05-23T05:23:14.681Z,10.10
2019-05-23T05:24:14.701Z,9.90
2019-05-23T05:25:14.729Z,9.50
2019-05-23T05:26:14.757Z,9.50
2019-05-23T05:27:14.796Z,9.40
2019-05-23T05:28:14.825Z,9.10
2019-05-23T05:29:14.851Z,9.10
2019-05-23T05:30:14.875Z,9.20
2019-05-23T05:31:14.922Z,9.70
2019-05-23T05:32:14.933Z,10.20
2019-05-23T05:33:14.963Z,9.60
2019-05-23T05:34:14.991Z,8.60
2019-05-23T05:35:15.031Z,8.60
2019-05-23T05:36:15.053Z,8.50
2019-05-23T05:37:15.082Z,9.10
2019-05-23T05:38:15.111Z,8.50
2019-05-23T05:39:15.138Z,9.00
2019-05-23T05:40:15.168Z,9.20
2019-05-23T05:41:15.198Z,9.30
2019-05-23T05:42:15.228Z,9.10
2019-05-23T05:43:15.260Z,9.60
2019-05-23T05:44:15.288Z,8.10
2019-05-23T05:45:15.317Z,8.70
2019-05-23T05:46:15.344Z,8.80
2019-05-23T05:47:15.376Z,8.50
2019-05-23T05:48:15.406Z,8.30
2019-05-23T05:49:15.439Z,8.30
2019-05-23T05:50:15.463Z,8.70
2019-05-23T05:51:15.494Z,8.80
2019-05-23T05:52:15.524Z,8.80
2019-05-23T05:53:15.552Z,9.30
2019-05-23T05:54:15.651Z,8.40
2019-05-23T05:55:15.618Z,8.60
2019-05-23T05:56:15.687Z,8.90
2019-05-23T05:57:15.673Z,8.20
2019-05-23T05:58:15.701Z,8.80
2019-05-23T05:59:15.753Z,8.40
2019-05-23T06:00:15.769Z,8.90
2019-05-23T06:01:31.178Z,7.80
2019-05-23T06:02:15.819Z,8.10
2019-05-23T06:03:15.853Z,8.00
2019-05-23T06:04:15.879Z,7.60
2019-05-23T06:05:15.911Z,7.90
2019-05-23T06:07:17.219Z,8.00
2019-05-23T06:12:16.755Z,8.20
2019-05-23T06:13:16.380Z,8.00
2019-05-23T06:19:16.335Z,8.10
2019-05-23T06:22:17.057Z,8.50
2019-05-23T06:25:16.531Z,10.70
2019-05-23T06:26:16.548Z,12.90
2019-05-23T06:27:16.581Z,11.90
2019-05-23T06:28:16.639Z,10.50
2019-05-23T06:30:16.719Z,13.80
2019-05-23T06:31:16.703Z,14.80
2019-05-23T06:32:16.736Z,14.60
2019-05-23T06:33:23.384Z,12.30
2019-05-23T06:34:16.804Z,12.50
2019-05-23T06:35:16.829Z,12.00
2019-05-23T06:36:16.881Z,11.20
2019-05-23T06:37:16.894Z,10.10
2019-05-23T06:38:16.959Z,9.80
2019-05-23T06:39:16.978Z,9.60
2019-05-23T06:40:17.007Z,9.10
2019-05-23T06:41:17.043Z,9.10
2019-05-23T06:42:17.047Z,9.30
2019-05-23T06:43:17.078Z,9.20
2019-05-23T06:44:17.111Z,8.90
2019-05-23T06:45:17.142Z,8.80
2019-05-23T06:46:17.172Z,8.40
2019-05-23T06:47:17.206Z,9.00
2019-05-23T06:48:17.236Z,8.90
2019-05-23T06:49:17.269Z,8.40
2019-05-23T06:50:17.302Z,8.00
2019-05-23T06:51:17.332Z,8.40
2019-05-23T06:52:17.367Z,8.70
2019-05-23T06:53:17.417Z,8.30
2019-05-23T06:54:17.427Z,7.80
2019-05-23T06:55:17.459Z,8.80
2019-05-23T06:56:17.519Z,8.40
2019-05-23T06:57:17.523Z,7.90
2019-05-23T06:58:17.559Z,8.70
2019-05-23T06:59:18.801Z,8.60
2019-05-23T07:00:17.622Z,8.90
2019-05-23T07:01:17.651Z,9.10
2019-05-23T07:02:17.685Z,9.30
2019-05-23T07:03:17.716Z,9.40
2019-05-23T07:04:17.747Z,8.90
2019-05-23T07:05:17.784Z,8.80
2019-05-23T07:06:17.822Z,8.80
2019-05-23T07:07:17.846Z,9.30
2019-05-23T07:08:17.979Z,9.00
2019-05-23T07:11:48.807Z,9.00
2019-05-23T07:12:48.837Z,8.80
2019-05-23T07:13:48.865Z,8.50
2019-05-23T07:14:48.899Z,8.50
2019-05-23T07:15:48.931Z,9.30
2019-05-23T07:16:50.349Z,9.10
2019-05-23T07:17:48.996Z,9.20
2019-05-23T07:18:49.094Z,8.70
2019-05-23T07:19:49.063Z,8.80
2019-05-23T07:20:49.096Z,9.20
2019-05-23T07:21:49.126Z,9.30
2019-05-23T07:23:49.195Z,9.00
2019-05-23T07:24:58.359Z,8.90
2019-05-23T07:25:49.259Z,9.10
2019-05-23T07:26:49.294Z,8.70
2019-05-23T07:27:49.340Z,8.70
2019-05-23T07:28:49.360Z,8.80
2019-05-23T07:29:49.392Z,8.60
2019-05-23T07:30:49.425Z,8.50
2019-05-23T07:31:49.459Z,8.60
2019-05-23T07:32:49.497Z,8.80
2019-05-23T07:34:00.910Z,8.00
2019-05-23T07:34:49.561Z,7.70
2019-05-23T07:35:49.602Z,7.90
2019-05-23T07:36:49.629Z,7.90
2019-05-23T07:37:49.693Z,8.10
2019-05-23T07:38:49.922Z,7.20
2019-05-23T07:39:49.743Z,7.80
2019-05-23T07:40:49.764Z,6.50
2019-05-23T07:41:49.796Z,7.30
2019-05-23T07:42:49.834Z,7.00
2019-05-23T07:43:49.865Z,7.20
2019-05-23T07:44:49.905Z,6.70
2019-05-23T07:45:49.933Z,7.40
2019-05-23T07:46:49.971Z,6.70
2019-05-23T07:47:50.005Z,6.60
2019-05-23T07:48:50.037Z,7.20
2019-05-23T07:49:50.068Z,7.00
2019-05-23T07:50:50.104Z,7.30
2019-05-23T07:51:50.141Z,6.10
2019-05-23T07:52:50.173Z,5.80
2019-05-23T07:53:50.601Z,6.60
2019-05-23T07:54:50.250Z,7.10
2019-05-23T07:55:50.606Z,5.50
2019-05-23T07:56:50.311Z,7.20
2019-05-23T07:57:50.344Z,5.70
2019-05-23T07:58:50.378Z,6.70
2019-05-23T07:59:50.414Z,6.50
2019-05-23T08:00:50.448Z,6.20
2019-05-23T08:01:50.481Z,6.30
2019-05-23T08:02:50.520Z,6.70
2019-05-23T08:03:50.551Z,6.30
2019-05-23T08:04:50.595Z,6.30
2019-05-23T08:05:50.635Z,6.40
2019-05-23T08:06:50.657Z,6.80
2019-05-23T08:07:50.717Z,6.70
2019-05-23T08:08:50.725Z,6.20
2019-05-23T08:09:50.827Z,6.20
2019-05-23T08:10:50.797Z,7.00
2019-05-23T08:11:50.834Z,6.10
2019-05-23T08:12:50.866Z,6.00
2019-05-23T08:13:50.929Z,6.50
2019-05-23T08:14:50.934Z,6.10
2019-05-23T08:15:50.990Z,5.90
2019-05-23T08:16:51.004Z,6.50
2019-05-23T08:17:51.040Z,5.40
2019-05-23T08:18:52.014Z,5.70
2019-05-23T08:19:51.119Z,5.50
2019-05-23T08:20:51.155Z,5.80
2019-05-23T08:21:51.183Z,5.10
2019-05-23T08:22:51.215Z,5.50
2019-05-23T08:23:51.251Z,5.80
2019-05-23T08:24:51.616Z,6.00
2019-05-23T08:25:51.348Z,5.20
2019-05-23T08:26:51.694Z,4.60
2019-05-23T08:27:51.392Z,5.40
2019-05-23T08:29:21.701Z,4.70
2019-05-23T08:29:51.485Z,5.20
2019-05-23T08:30:51.499Z,5.10
2019-05-23T08:31:51.770Z,5.20
2019-05-23T08:32:51.570Z,5.30
2019-05-23T08:33:51.605Z,5.40
2019-05-23T08:34:51.656Z,5.40
2019-05-23T08:35:51.676Z,5.10
2019-05-23T08:36:51.759Z,5.40
2019-05-23T08:37:51.747Z,5.60
2019-05-23T08:40:51.861Z,4.90
2019-05-23T08:41:51.892Z,6.60
2019-05-23T08:42:51.927Z,5.00
2019-05-23T08:43:51.963Z,5.40
2019-05-23T08:44:52.003Z,5.40
2019-05-23T08:45:52.054Z,5.20
2019-05-23T08:46:52.401Z,5.70
2019-05-23T08:47:52.119Z,5.50
2019-05-23T08:48:52.143Z,5.20
2019-05-23T08:49:52.179Z,4.70
2019-05-23T08:50:52.231Z,4.90
2019-05-23T08:51:52.253Z,5.00
2019-05-23T08:52:52.288Z,4.90
2019-05-23T08:53:52.324Z,5.00
2019-05-23T08:54:52.361Z,5.30
2019-05-23T08:55:52.432Z,5.10
2019-05-23T08:56:52.461Z,4.50
2019-05-23T08:57:52.469Z,5.50
2019-05-23T08:58:52.507Z,4.60
2019-05-23T08:59:52.542Z,5.10
2019-05-23T09:00:52.609Z,4.80
2019-05-23T09:01:52.651Z,5.30
2019-05-23T09:02:52.652Z,6.30
2019-05-23T09:03:52.692Z,6.40
2019-05-23T09:05:04.620Z,6.40
2019-05-23T09:05:52.764Z,6.70
2019-05-23T09:06:52.801Z,7.50
2019-05-23T09:07:52.840Z,7.50
2019-05-23T09:08:52.889Z,7.00
2019-05-23T09:09:52.924Z,7.10
2019-05-23T09:10:52.947Z,7.00
2019-05-23T09:11:52.987Z,7.30
2019-05-23T09:12:53.024Z,7.00
2019-05-23T09:13:53.063Z,7.00
2019-05-23T09:14:53.096Z,7.30
2019-05-23T09:16:35.685Z,7.10
2019-05-23T09:17:51.402Z,7.30
2019-05-23T09:18:35.761Z,7.00
2019-05-23T09:19:35.799Z,7.00
2019-05-23T09:20:35.835Z,7.60
2019-05-23T09:21:35.909Z,7.00
2019-05-23T09:22:35.906Z,7.20
2019-05-23T09:23:35.941Z,7.00
2019-05-23T09:24:35.980Z,7.40
2019-05-23T09:25:36.026Z,7.00
2019-05-23T09:26:36.054Z,8.40
2019-05-23T09:27:36.136Z,7.70
2019-05-23T09:28:36.139Z,7.40
2019-05-23T09:29:36.168Z,7.00
2019-05-23T09:30:36.207Z,6.70
2019-05-23T09:31:36.238Z,7.00
2019-05-23T09:32:36.279Z,7.30
2019-05-23T09:33:36.318Z,7.00
2019-05-23T09:34:36.352Z,6.60
2019-05-23T09:35:36.394Z,6.80
2019-05-23T09:36:36.429Z,7.50
2019-05-23T09:37:36.493Z,8.30
2019-05-23T09:45:36.759Z,7.40
2019-05-23T09:46:36.795Z,7.20
2019-05-23T09:47:36.876Z,7.10
2019-05-23T09:48:36.895Z,7.50
2019-05-23T09:49:36.932Z,7.50
2019-05-23T09:50:36.944Z,7.10
2019-05-23T09:51:36.981Z,6.30
2019-05-23T09:52:37.017Z,7.30
2019-05-23T09:53:37.271Z,6.60
2019-05-23T09:54:37.134Z,6.50
2019-05-23T09:55:37.133Z,6.40
2019-05-23T09:56:37.170Z,6.70
2019-05-23T09:57:37.205Z,6.20
2019-05-23T09:58:37.243Z,6.80
2019-05-23T09:59:37.302Z,6.20
2019-05-23T10:00:37.339Z,6.70
2019-05-23T10:01:37.363Z,6.70
2019-05-23T10:02:37.393Z,7.40
2019-05-23T10:03:37.427Z,6.90
2019-05-23T10:04:37.467Z,6.00
2019-05-23T10:05:44.140Z,6.50
2019-05-23T10:06:37.544Z,6.30
2019-05-23T10:07:37.580Z,6.00
2019-05-23T10:08:37.651Z,6.10
2019-05-23T10:09:37.667Z,6.50
2019-05-23T10:10:37.717Z,5.90
2019-05-23T10:12:37.770Z,5.80
2019-05-23T10:13:39.542Z,4.80
2019-05-23T10:14:37.871Z,6.10
2019-05-23T10:15:37.887Z,5.30
2019-05-23T10:16:37.917Z,6.00
2019-05-23T10:17:37.956Z,6.00
2019-05-23T10:18:37.999Z,5.80
2019-05-23T10:19:38.034Z,6.00
2019-05-23T10:20:38.071Z,7.00
2019-05-23T10:21:38.111Z,6.20
2019-05-23T10:22:38.147Z,5.70
2019-05-23T10:23:38.184Z,6.40
2019-05-23T10:24:38.223Z,6.50
2019-05-23T10:25:42.103Z,6.60
2019-05-23T10:26:40.922Z,6.00
2019-05-23T10:27:38.406Z,6.30
2019-05-23T10:28:38.408Z,5.80
2019-05-23T10:29:38.452Z,5.90
2019-05-23T10:30:38.458Z,5.10
2019-05-23T10:31:38.499Z,6.00
2019-05-23T10:32:39.144Z,6.00
2019-05-23T10:33:38.580Z,6.20
2019-05-23T10:34:38.623Z,6.10
2019-05-23T10:35:38.663Z,6.30
2019-05-23T10:36:38.706Z,5.60
2019-05-23T10:37:38.749Z,5.50
2019-05-23T10:38:38.795Z,6.20
2019-05-23T10:39:38.837Z,5.70
2019-05-23T10:40:38.881Z,5.60
2019-05-23T10:41:39.151Z,5.40
2019-05-23T10:42:38.970Z,5.40
2019-05-23T10:43:39.443Z,5.60
2019-05-23T10:44:39.273Z,5.80
2019-05-23T10:45:39.133Z,5.40
2019-05-23T10:47:39.207Z,5.50
2019-05-23T10:48:39.244Z,5.80
2019-05-23T10:50:25.162Z,5.80
2019-05-23T10:51:21.962Z,5.50
2019-05-23T10:52:22.115Z,5.20
2019-05-23T10:53:22.059Z,5.40
2019-05-23T10:54:22.111Z,5.20
2019-05-23T10:55:22.160Z,5.30
2019-05-23T10:56:22.199Z,5.60
2019-05-23T10:57:22.246Z,5.40
2019-05-23T10:58:22.297Z,6.20
2019-05-23T11:00:22.398Z,5.80
2019-05-23T11:01:22.440Z,6.00
2019-05-23T11:02:27.070Z,6.50
2019-05-23T11:03:22.537Z,6.30
2019-05-23T11:04:22.587Z,6.20
2019-05-23T11:05:22.637Z,6.30
2019-05-23T11:06:22.688Z,5.70
2019-05-23T11:07:22.735Z,6.00
2019-05-23T11:08:28.540Z,5.10
2019-05-23T11:09:36.655Z,5.30
2019-05-23T11:10:22.885Z,5.80
2019-05-23T11:11:22.995Z,5.80
2019-05-23T11:12:22.985Z,5.30
2019-05-23T11:13:23.031Z,5.70
2019-05-23T11:14:23.085Z,5.40
2019-05-23T11:15:23.133Z,5.90
2019-05-23T11:16:23.181Z,5.80
2019-05-23T11:17:23.233Z,5.90
2019-05-23T11:18:23.282Z,5.30
2019-05-23T11:19:23.340Z,5.90
2019-05-23T11:20:23.383Z,5.60
2019-05-23T11:21:23.453Z,6.00
2019-05-23T11:22:23.482Z,5.90
2019-05-23T11:23:23.534Z,6.20
2019-05-23T11:24:23.587Z,6.00
2019-05-23T11:25:23.634Z,6.50
2019-05-23T11:26:23.686Z,5.80
2019-05-23T11:27:23.745Z,5.70
2019-05-23T11:28:23.786Z,5.50
2019-05-23T11:29:27.092Z,5.50
2019-05-23T11:30:23.894Z,5.50
2019-05-23T11:31:23.941Z,5.10
2019-05-23T11:32:23.991Z,5.50
2019-05-23T11:33:24.041Z,5.80
2019-05-23T11:34:24.092Z,4.70
2019-05-23T11:35:24.141Z,4.90
2019-05-23T11:36:34.871Z,5.10
2019-05-23T11:37:24.246Z,5.40
2019-05-23T11:38:24.295Z,5.20
2019-05-23T11:39:24.351Z,5.60
2019-05-23T11:40:24.397Z,5.00
2019-05-23T11:41:24.449Z,5.00
2019-05-23T11:42:24.500Z,5.60
2019-05-23T11:43:24.552Z,5.10
2019-05-23T11:44:24.615Z,5.60
2019-05-23T11:45:24.651Z,5.10
2019-05-23T11:46:24.703Z,4.50
2019-05-23T11:47:24.770Z,4.40
2019-05-23T11:48:24.808Z,4.80
2019-05-23T11:49:25.089Z,4.90
2019-05-23T11:50:24.908Z,5.60
2019-05-23T11:51:25.969Z,5.70
2019-05-23T11:52:25.011Z,5.40
2019-05-23T11:53:25.066Z,5.90
2019-05-23T11:54:25.114Z,5.90
2019-05-23T11:55:25.166Z,5.70
2019-05-23T11:56:25.223Z,5.50
2019-05-23T11:57:25.280Z,5.40
2019-05-23T11:58:25.338Z,5.30
2019-05-23T11:59:25.370Z,5.40
2019-05-23T12:00:25.425Z,5.00
2019-05-23T12:01:25.470Z,4.60
2019-05-23T12:02:25.523Z,5.20
2019-05-23T12:03:25.574Z,6.00
2019-05-23T12:04:25.628Z,5.20
2019-05-23T12:05:25.935Z,5.50
2019-05-23T12:06:26.580Z,6.40
2019-05-23T12:07:25.781Z,5.50
2019-05-23T12:08:25.836Z,6.20
2019-05-23T12:09:25.884Z,6.60
2019-05-23T12:10:26.062Z,5.50
2019-05-23T12:11:25.986Z,5.90
2019-05-23T12:12:26.068Z,5.50
2019-05-23T12:13:26.089Z,5.50
2019-05-23T12:14:26.146Z,5.70
2019-05-23T12:15:26.193Z,5.70
2019-05-23T12:16:26.245Z,5.90
2019-05-23T12:17:26.496Z,5.80
2019-05-23T12:18:26.368Z,5.60
2019-05-23T12:19:26.419Z,6.10
2019-05-23T12:20:26.755Z,4.70
2019-05-23T12:21:26.507Z,5.30
2019-05-23T12:22:26.591Z,5.10
2019-05-23T12:23:26.826Z,4.80
2019-05-23T12:25:26.718Z,4.90
2019-05-23T12:26:26.785Z,4.60
2019-05-23T12:27:27.375Z,5.20
2019-05-23T12:28:27.775Z,4.80
2019-05-23T12:33:27.113Z,4.60
2019-05-23T12:34:27.181Z,4.80
2019-05-23T12:35:27.240Z,4.70
2019-05-23T12:38:27.369Z,4.60
2019-05-23T12:39:27.493Z,4.30
2019-05-23T12:40:27.505Z,4.20
2019-05-23T12:41:27.529Z,5.20
2019-05-23T12:42:27.574Z,4.70
2019-05-23T12:44:27.700Z,5.40
2019-05-23T12:53:31.093Z,4.10
2019-05-23T12:54:28.185Z,4.20
2019-05-23T12:55:28.237Z,4.10
2019-05-23T12:56:28.289Z,4.30
2019-05-23T12:57:28.338Z,3.80
2019-05-23T12:58:28.388Z,4.10
2019-05-23T12:59:28.439Z,3.70
2019-05-23T13:00:28.525Z,4.70
2019-05-23T13:01:28.767Z,4.80
2019-05-23T13:02:28.615Z,4.10
2019-05-23T13:03:28.652Z,4.00
2019-05-23T13:04:28.697Z,4.10
2019-05-23T13:05:28.748Z,4.00
2019-05-23T13:06:28.796Z,3.90
2019-05-23T13:07:36.241Z,4.50
2019-05-23T13:08:28.900Z,4.60
2019-05-23T13:09:28.952Z,4.30
2019-05-23T13:10:29.004Z,3.70
2019-05-23T13:11:29.053Z,3.70
2019-05-23T13:12:29.122Z,4.30
2019-05-23T13:13:29.159Z,3.60
2019-05-23T13:14:29.207Z,3.80
2019-05-23T13:15:29.257Z,3.80
2019-05-23T13:16:29.314Z,3.80
2019-05-23T13:17:29.360Z,4.20
2019-05-23T13:18:29.410Z,3.60
2019-05-23T13:19:29.465Z,3.70
2019-05-23T13:20:29.540Z,4.10
2019-05-23T13:21:30.852Z,3.90
2019-05-23T13:24:53.182Z,3.90
2019-05-23T13:25:50.378Z,3.90
2019-05-23T13:26:51.017Z,4.10
2019-05-23T13:30:50.385Z,4.00
2019-05-23T13:31:50.433Z,4.30
2019-05-23T13:32:50.491Z,3.20
2019-05-23T13:33:50.539Z,3.90
2019-05-23T13:34:50.611Z,3.50
2019-05-23T13:35:50.869Z,4.10
2019-05-23T13:36:50.937Z,4.20
2019-05-23T13:38:51.419Z,3.50
2019-05-23T13:40:50.915Z,3.10
2019-05-23T13:41:50.947Z,3.30
2019-05-23T13:42:51.200Z,3.60
2019-05-23T13:43:51.126Z,3.20
2019-05-23T13:44:51.122Z,3.20
2019-05-23T13:46:51.226Z,3.20
2019-05-23T13:47:51.479Z,3.10
2019-05-23T13:48:51.377Z,3.40
2019-05-23T13:49:51.437Z,3.60
2019-05-23T13:50:51.407Z,3.30
2019-05-23T13:51:51.500Z,3.90
2019-05-23T13:52:51.528Z,3.80
2019-05-23T13:53:51.600Z,3.90
2019-05-23T13:54:52.040Z,3.50
2019-05-23T13:55:51.708Z,3.30
2019-05-23T13:57:51.785Z,3.40
2019-05-23T13:58:52.038Z,3.60
2019-05-23T13:59:51.888Z,3.70
2019-05-23T14:01:52.801Z,3.70
2019-05-23T14:02:52.961Z,3.40
2019-05-23T14:03:52.299Z,3.50
2019-05-23T14:04:52.348Z,3.30
2019-05-23T14:05:52.199Z,3.50
2019-05-23T14:06:52.251Z,3.80
2019-05-23T14:08:08.790Z,3.70
2019-05-23T14:08:52.348Z,3.30
2019-05-23T14:09:52.401Z,3.30
2019-05-23T14:12:19.576Z,3.30
2019-05-23T14:12:52.529Z,4.00
2019-05-23T14:13:59.485Z,4.00
2019-05-23T14:14:52.629Z,4.20
2019-05-23T14:15:52.686Z,4.10
2019-05-23T14:16:52.732Z,3.70
2019-05-23T14:17:52.789Z,5.50
2019-05-23T14:18:53.058Z,4.50
2019-05-23T14:19:52.884Z,4.40
2019-05-23T14:27:53.517Z,6.40
2019-05-23T14:28:54.087Z,5.60
2019-05-23T14:29:54.127Z,4.70
2019-05-23T14:30:53.440Z,5.00
2019-05-23T14:31:53.490Z,4.60
2019-05-23T14:32:53.541Z,5.00
2019-05-23T14:33:53.590Z,4.10
2019-05-23T14:34:53.639Z,4.30
2019-05-23T14:35:53.690Z,3.90
2019-05-23T14:36:53.743Z,3.80
2019-05-23T14:37:53.791Z,3.90
2019-05-23T14:38:53.839Z,4.10
2019-05-23T14:39:53.890Z,4.70
2019-05-23T14:40:53.942Z,4.20
2019-05-23T14:41:53.990Z,4.10
2019-05-23T14:42:54.043Z,4.40
2019-05-23T14:43:54.102Z,4.70
2019-05-23T14:44:54.139Z,4.30
2019-05-23T14:45:54.198Z,4.70
2019-05-23T14:46:54.238Z,4.40
2019-05-23T14:47:54.320Z,5.00
2019-05-23T14:48:54.347Z,4.90
2019-05-23T14:49:54.438Z,4.80
2019-05-23T14:50:54.449Z,5.00
2019-05-23T14:51:54.488Z,5.30
2019-05-23T14:52:54.538Z,4.50
2019-05-23T14:53:54.588Z,4.70
2019-05-23T14:54:54.636Z,4.50
2019-05-23T14:55:54.686Z,4.20
2019-05-23T14:56:54.735Z,4.50
2019-05-23T14:57:54.788Z,4.30
2019-05-23T14:58:54.885Z,4.90
2019-05-23T14:59:54.883Z,4.30
2019-05-23T15:00:54.934Z,4.40
2019-05-23T15:01:54.984Z,4.50
2019-05-23T15:02:55.031Z,4.70
2019-05-23T15:03:55.081Z,4.90
2019-05-23T15:04:55.129Z,4.20
2019-05-23T15:05:55.183Z,4.40
2019-05-23T15:06:55.227Z,4.60
2019-05-23T15:07:55.286Z,4.90
2019-05-23T15:08:55.329Z,4.50
2019-05-23T15:09:55.376Z,4.90
2019-05-23T15:10:55.425Z,4.40
2019-05-23T15:11:55.476Z,4.70
2019-05-23T15:12:55.524Z,4.40
2019-05-23T15:13:55.736Z,4.40
2019-05-23T15:14:55.619Z,4.40
2019-05-23T15:15:55.670Z,4.20
2019-05-23T15:16:55.723Z,4.10
2019-05-23T15:17:55.772Z,4.30
2019-05-23T15:18:55.824Z,4.60
2019-05-23T15:19:55.864Z,4.10
2019-05-23T15:20:55.912Z,4.60
2019-05-23T15:21:56.032Z,4.30
2019-05-23T15:22:59.730Z,4.60
2019-05-23T15:23:56.061Z,4.20
2019-05-23T15:24:56.112Z,4.40
2019-05-23T15:25:56.159Z,4.20
2019-05-23T15:26:56.203Z,4.50
2019-05-23T15:27:56.251Z,4.20
2019-05-23T15:28:56.299Z,4.10
2019-05-23T15:29:56.347Z,3.40
2019-05-23T15:30:56.398Z,4.00
2019-05-23T15:32:02.157Z,3.90
2019-05-23T15:32:56.493Z,4.00
2019-05-23T15:33:56.634Z,3.40
2019-05-23T15:34:56.589Z,4.00
2019-05-23T15:35:56.637Z,3.70
2019-05-23T15:36:56.684Z,4.20
2019-05-23T15:37:56.733Z,3.80
2019-05-23T15:39:08.730Z,3.50
2019-05-23T15:39:56.832Z,4.10
2019-05-23T15:40:56.895Z,3.40
2019-05-23T15:41:56.926Z,4.40
2019-05-23T15:42:56.973Z,3.90
2019-05-23T15:43:57.022Z,3.50
2019-05-23T15:44:57.074Z,3.40
2019-05-23T15:45:57.119Z,3.90
2019-05-23T15:46:57.169Z,4.00
2019-05-23T15:47:57.215Z,3.60
2019-05-23T15:48:57.262Z,4.00
2019-05-23T15:49:57.310Z,3.70
2019-05-23T15:50:57.372Z,3.70
2019-05-23T15:51:57.403Z,3.70
2019-05-23T15:52:57.457Z,3.80
2019-05-23T15:53:57.504Z,3.70
2019-05-23T15:54:57.603Z,4.30